PWSweather.com
Personal Weather Stations
Station Observations
WISCHPK61
Green Bay Schmitt Park, Green Bay, WI 54311

Green Bay Schmitt ParkGreen Bay, WI 54311

Lat: 44.514277, Lon: -87.935067

Elevation: 735

Station Type: Acu Rite Pro Weather Center model 02032C

http://greenbayweathercam.com

High Low Average
Temperature 92.8°F33.8°C 64.4°F18.0°C 75.9°F24.4°C
Dew Point 92.5°F33.6°C 64.1°F17.8°C 75.6°F24.2°C
Winds 2.3 mph 3.7 kmh Calm Calm Calm SCalm S
Wind Gusts 2.3 mph3.7 kmh -- --
Humidity 99% 99% 99%
Pressure 29.42 in996.3 mb 29.26 in990.9 mb -
Precipitation 0.00 in0.0 mm - -
Hour Temp Dew Point Humidity Winds Wind Gusts Pressure Precip Precip Rate Daily Precip Total
12:00 AM 68.9°F20.5°C 68.6°F20.3°C 99% Calm Calm -- 29.41 in995.9 mb - 0.00 in0.0 mm 0.00 in0.0 mm
01:00 AM 67.1°F19.5°C 66.8°F19.3°C 99% Calm Calm -- 29.42 in996.3 mb - 0.00 in0.0 mm 0.00 in0.0 mm
02:00 AM 66.6°F19.2°C 66.3°F19.1°C 99% Calm Calm -- 29.40 in995.6 mb - 0.00 in0.0 mm 0.00 in0.0 mm
03:00 AM 65.8°F18.8°C 65.5°F18.6°C 99% Calm Calm -- 29.40 in995.6 mb - 0.00 in0.0 mm 0.00 in0.0 mm
04:00 AM 64.8°F18.2°C 64.5°F18.1°C 99% Calm Calm -- 29.39 in995.3 mb - 0.00 in0.0 mm 0.00 in0.0 mm
05:00 AM 64.4°F18.0°C 64.1°F17.8°C 99% Calm Calm -- 29.39 in995.3 mb - 0.00 in0.0 mm 0.00 in0.0 mm
06:00 AM 65.1°F18.4°C 64.8°F18.2°C 99% Calm Calm -- 29.39 in995.3 mb - 0.00 in0.0 mm 0.00 in0.0 mm
07:00 AM 67.6°F19.8°C 67.3°F19.6°C 99% Calm Calm -- 29.40 in995.6 mb - 0.00 in0.0 mm 0.00 in0.0 mm
08:00 AM 71.8°F22.1°C 71.5°F21.9°C 99% Calm Calm -- 29.40 in995.6 mb - 0.00 in0.0 mm 0.00 in0.0 mm
09:00 AM 76.2°F24.6°C 75.9°F24.4°C 99% 2.3 mph W3.7 kmh W 2.3 mph3.7 kmh 29.39 in995.3 mb - 0.00 in0.0 mm 0.00 in0.0 mm
10:00 AM 79.7°F26.5°C 79.4°F26.3°C 99% Calm Calm -- 29.38 in994.9 mb - 0.00 in0.0 mm 0.00 in0.0 mm
12:00 PM 89.0°F31.7°C 88.6°F31.4°C 99% Calm Calm -- 29.34 in993.6 mb - 0.00 in0.0 mm 0.00 in0.0 mm
01:00 PM 92.8°F33.8°C 92.5°F33.6°C 99% 1.2 mph SW1.9 kmh SW 1.2 mph1.9 kmh 29.32 in992.9 mb - 0.00 in0.0 mm 0.00 in0.0 mm
02:00 PM 90.4°F32.4°C 90.1°F32.3°C 99% Calm Calm 1.2 mph1.9 kmh 29.31 in992.6 mb - 0.00 in0.0 mm 0.00 in0.0 mm
03:00 PM 88.9°F31.6°C 88.6°F31.4°C 99% Calm Calm -- 29.29 in991.9 mb - 0.00 in0.0 mm 0.00 in0.0 mm
04:00 PM 87.0°F30.6°C 86.7°F30.4°C 99% Calm Calm 1.2 mph1.9 kmh 29.27 in991.2 mb - 0.00 in0.0 mm 0.00 in0.0 mm
05:00 PM 84.3°F29.1°C 84.0°F28.9°C 99% Calm Calm -- 29.26 in990.9 mb - 0.00 in0.0 mm 0.00 in0.0 mm
06:00 PM 81.2°F27.3°C 80.8°F27.1°C 99% Calm Calm -- 29.26 in990.9 mb - 0.00 in0.0 mm 0.00 in0.0 mm
07:00 PM 78.3°F25.7°C 78.0°F25.6°C 99% Calm Calm -- 29.26 in990.9 mb - 0.00 in0.0 mm 0.00 in0.0 mm
08:00 PM 75.4°F24.1°C 75.1°F23.9°C 99% Calm Calm -- 29.26 in990.9 mb - 0.00 in0.0 mm 0.00 in0.0 mm
09:00 PM 74.1°F23.4°C 73.8°F23.2°C 99% Calm Calm -- 29.27 in991.2 mb - 0.00 in0.0 mm 0.00 in0.0 mm
10:00 PM 73.9°F23.3°C 73.6°F23.1°C 99% Calm Calm -- 29.27 in991.2 mb - 0.00 in0.0 mm 0.00 in0.0 mm
11:00 PM 73.0°F22.8°C 72.7°F22.6°C 99% Calm Calm -- 29.27 in991.2 mb - 0.00 in0.0 mm 0.00 in0.0 mm